sensor_id;sensor_type;location;lat;lon;timestamp;pressure;altitude;pressure_sealevel;temperature;humidity
4022;BME280;2025;48.260;16.432;2023-10-31T00:01:06;98306.81;;;14.79;78.98
4022;BME280;2025;48.260;16.432;2023-10-31T00:03:33;98314.41;;;14.75;78.99
4022;BME280;2025;48.260;16.432;2023-10-31T00:06:00;98312.44;;;14.82;78.41
4022;BME280;2025;48.260;16.432;2023-10-31T00:08:26;98322.72;;;14.79;78.74
4022;BME280;2025;48.260;16.432;2023-10-31T00:10:53;98306.22;;;14.88;77.93
4022;BME280;2025;48.260;16.432;2023-10-31T00:13:20;98313.47;;;14.93;77.51
4022;BME280;2025;48.260;16.432;2023-10-31T00:15:47;98318.66;;;15.00;76.97
4022;BME280;2025;48.260;16.432;2023-10-31T00:18:16;98312.19;;;15.07;76.55
4022;BME280;2025;48.260;16.432;2023-10-31T00:20:43;98299.97;;;15.06;76.67
4022;BME280;2025;48.260;16.432;2023-10-31T00:23:10;98295.91;;;15.15;75.90
4022;BME280;2025;48.260;16.432;2023-10-31T00:25:37;98286.13;;;15.16;75.71
4022;BME280;2025;48.260;16.432;2023-10-31T00:28:04;98284.34;;;15.22;74.93
4022;BME280;2025;48.260;16.432;2023-10-31T00:30:31;98282.63;;;15.27;74.53
4022;BME280;2025;48.260;16.432;2023-10-31T00:32:57;98264.19;;;15.21;75.00
4022;BME280;2025;48.260;16.432;2023-10-31T00:35:26;98266.63;;;15.22;74.66
4022;BME280;2025;48.260;16.432;2023-10-31T00:37:53;98262.34;;;15.21;74.41
4022;BME280;2025;48.260;16.432;2023-10-31T00:40:20;98274.56;;;15.22;74.85
4022;BME280;2025;48.260;16.432;2023-10-31T00:42:47;98278.25;;;15.21;74.72
4022;BME280;2025;48.260;16.432;2023-10-31T00:45:14;98268.69;;;15.20;74.32
4022;BME280;2025;48.260;16.432;2023-10-31T00:47:41;98257.53;;;15.18;74.57
4022;BME280;2025;48.260;16.432;2023-10-31T00:50:08;98256.25;;;15.21;74.49
4022;BME280;2025;48.260;16.432;2023-10-31T00:52:37;98256.16;;;15.15;74.65
4022;BME280;2025;48.260;16.432;2023-10-31T00:55:04;98262.38;;;15.09;75.08
4022;BME280;2025;48.260;16.432;2023-10-31T00:57:31;98261.22;;;15.05;75.05
4022;BME280;2025;48.260;16.432;2023-10-31T00:59:58;98277.63;;;15.02;75.42
4022;BME280;2025;48.260;16.432;2023-10-31T01:02:25;98276.72;;;14.96;75.52
4022;BME280;2025;48.260;16.432;2023-10-31T01:04:52;98278.56;;;14.84;76.32
4022;BME280;2025;48.260;16.432;2023-10-31T01:07:19;98272.47;;;14.84;75.95
4022;BME280;2025;48.260;16.432;2023-10-31T01:09:47;98275.22;;;14.77;76.83
4022;BME280;2025;48.260;16.432;2023-10-31T01:12:14;98268.53;;;14.86;75.86
4022;BME280;2025;48.260;16.432;2023-10-31T01:14:41;98254.97;;;14.83;76.13
4022;BME280;2025;48.260;16.432;2023-10-31T01:17:08;98245.03;;;14.90;75.65
4022;BME280;2025;48.260;16.432;2023-10-31T01:19:35;98237.66;;;14.92;75.41
4022;BME280;2025;48.260;16.432;2023-10-31T01:22:02;98225.53;;;14.96;74.84
4022;BME280;2025;48.260;16.432;2023-10-31T01:24:30;98221.59;;;14.99;74.58
4022;BME280;2025;48.260;16.432;2023-10-31T01:26:58;98211.91;;;15.04;74.04
4022;BME280;2025;48.260;16.432;2023-10-31T01:29:25;98202.69;;;15.07;74.18
4022;BME280;2025;48.260;16.432;2023-10-31T01:31:52;98192.06;;;15.07;74.22
4022;BME280;2025;48.260;16.432;2023-10-31T01:34:20;98180.22;;;14.98;74.31
4022;BME280;2025;48.260;16.432;2023-10-31T01:36:47;98174.22;;;15.02;74.24
4022;BME280;2025;48.260;16.432;2023-10-31T01:39:14;98172.75;;;14.94;74.56
4022;BME280;2025;48.260;16.432;2023-10-31T01:41:41;98161.81;;;14.91;74.74
4022;BME280;2025;48.260;16.432;2023-10-31T01:44:10;98143.25;;;14.91;74.89
4022;BME280;2025;48.260;16.432;2023-10-31T01:46:37;98137.88;;;14.86;74.89
4022;BME280;2025;48.260;16.432;2023-10-31T01:49:04;98113.53;;;14.89;74.61
4022;BME280;2025;48.260;16.432;2023-10-31T01:51:31;98123.56;;;14.87;74.56
4022;BME280;2025;48.260;16.432;2023-10-31T01:53:58;98119.63;;;14.89;74.23
4022;BME280;2025;48.260;16.432;2023-10-31T01:56:25;98132.22;;;14.82;74.60
4022;BME280;2025;48.260;16.432;2023-10-31T01:58:53;98132.22;;;14.82;74.63
4022;BME280;2025;48.260;16.432;2023-10-31T02:01:22;98115.53;;;14.82;74.10
4022;BME280;2025;48.260;16.432;2023-10-31T02:03:49;98113.44;;;14.84;74.03
4022;BME280;2025;48.260;16.432;2023-10-31T02:06:16;98106.06;;;14.86;74.11
4022;BME280;2025;48.260;16.432;2023-10-31T02:08:43;98098.28;;;14.96;72.86
4022;BME280;2025;48.260;16.432;2023-10-31T02:11:10;98097.34;;;15.02;72.59
4022;BME280;2025;48.260;16.432;2023-10-31T02:13:37;98097.66;;;15.06;72.21
4022;BME280;2025;48.260;16.432;2023-10-31T02:16:04;98095.13;;;15.11;71.67
4022;BME280;2025;48.260;16.432;2023-10-31T02:18:33;98084.25;;;15.12;71.69
4022;BME280;2025;48.260;16.432;2023-10-31T02:21:00;98088.28;;;15.15;71.37
4022;BME280;2025;48.260;16.432;2023-10-31T02:23:28;98088.13;;;15.22;71.12
4022;BME280;2025;48.260;16.432;2023-10-31T02:25:56;98074.97;;;15.27;70.82
4022;BME280;2025;48.260;16.432;2023-10-31T02:28:23;98080.50;;;15.25;71.26
4022;BME280;2025;48.260;16.432;2023-10-31T02:30:53;98076.56;;;15.28;70.86
4022;BME280;2025;48.260;16.432;2023-10-31T02:33:20;98077.13;;;15.30;70.45
4022;BME280;2025;48.260;16.432;2023-10-31T02:35:47;98068.13;;;15.31;70.54
4022;BME280;2025;48.260;16.432;2023-10-31T02:38:14;98076.25;;;15.41;69.78
4022;BME280;2025;48.260;16.432;2023-10-31T02:40:42;98087.91;;;15.40;69.90
4022;BME280;2025;48.260;16.432;2023-10-31T02:43:09;98094.25;;;15.39;69.45
4022;BME280;2025;48.260;16.432;2023-10-31T02:45:36;98101.09;;;15.35;69.53
4022;BME280;2025;48.260;16.432;2023-10-31T02:48:04;98099.16;;;15.30;70.10
4022;BME280;2025;48.260;16.432;2023-10-31T02:50:31;98096.19;;;15.27;70.14
4022;BME280;2025;48.260;16.432;2023-10-31T02:52:58;98101.38;;;15.22;70.34
4022;BME280;2025;48.260;16.432;2023-10-31T02:55:25;98105.00;;;15.15;70.62
4022;BME280;2025;48.260;16.432;2023-10-31T02:57:53;98105.47;;;15.12;70.74
4022;BME280;2025;48.260;16.432;2023-10-31T03:00:20;98107.53;;;15.10;70.65
4022;BME280;2025;48.260;16.432;2023-10-31T03:02:47;98097.19;;;15.09;70.90
4022;BME280;2025;48.260;16.432;2023-10-31T03:05:14;98108.25;;;15.06;70.92
4022;BME280;2025;48.260;16.432;2023-10-31T03:07:41;98110.47;;;15.09;70.62
4022;BME280;2025;48.260;16.432;2023-10-31T03:10:09;98117.03;;;15.06;71.15
4022;BME280;2025;48.260;16.432;2023-10-31T03:12:36;98141.03;;;15.00;71.47
4022;BME280;2025;48.260;16.432;2023-10-31T03:15:06;98159.03;;;14.98;71.89
4022;BME280;2025;48.260;16.432;2023-10-31T03:17:33;98166.97;;;14.98;71.83
4022;BME280;2025;48.260;16.432;2023-10-31T03:20:00;98182.88;;;14.98;72.15
4022;BME280;2025;48.260;16.432;2023-10-31T03:22:27;98180.72;;;14.94;72.83
4022;BME280;2025;48.260;16.432;2023-10-31T03:24:54;98177.50;;;14.92;73.46
4022;BME280;2025;48.260;16.432;2023-10-31T03:27:21;98179.03;;;14.77;73.92
4022;BME280;2025;48.260;16.432;2023-10-31T03:29:48;98186.94;;;14.88;73.22
4022;BME280;2025;48.260;16.432;2023-10-31T03:32:16;98195.47;;;14.90;73.22
4022;BME280;2025;48.260;16.432;2023-10-31T03:34:43;98206.06;;;14.90;74.08
4022;BME280;2025;48.260;16.432;2023-10-31T03:37:10;98167.19;;;14.96;74.55
4022;BME280;2025;48.260;16.432;2023-10-31T03:39:37;98171.94;;;14.94;74.99
4022;BME280;2025;48.260;16.432;2023-10-31T03:42:04;98189.81;;;14.87;75.79
4022;BME280;2025;48.260;16.432;2023-10-31T03:44:31;98183.41;;;14.83;76.00
4022;BME280;2025;48.260;16.432;2023-10-31T03:46:58;98193.34;;;14.75;76.39
4022;BME280;2025;48.260;16.432;2023-10-31T03:49:27;98204.66;;;14.59;76.93
4022;BME280;2025;48.260;16.432;2023-10-31T03:51:54;98210.47;;;14.49;77.10
4022;BME280;2025;48.260;16.432;2023-10-31T03:54:21;98201.06;;;14.42;77.81
4022;BME280;2025;48.260;16.432;2023-10-31T03:56:48;98204.88;;;14.34;78.58
4022;BME280;2025;48.260;16.432;2023-10-31T03:59:15;98221.19;;;14.31;78.15
4022;BME280;2025;48.260;16.432;2023-10-31T04:01:42;98241.25;;;14.27;78.03
4022;BME280;2025;48.260;16.432;2023-10-31T04:04:09;98249.31;;;14.20;78.43
4022;BME280;2025;48.260;16.432;2023-10-31T04:06:37;98272.09;;;14.21;78.32
4022;BME280;2025;48.260;16.432;2023-10-31T04:09:06;98251.94;;;14.20;78.29
4022;BME280;2025;48.260;16.432;2023-10-31T04:11:32;98247.66;;;14.19;78.13
4022;BME280;2025;48.260;16.432;2023-10-31T04:13:59;98262.75;;;14.19;77.99
4022;BME280;2025;48.260;16.432;2023-10-31T04:16:26;98269.78;;;14.13;78.31
4022;BME280;2025;48.260;16.432;2023-10-31T04:18:53;98268.63;;;14.09;78.46
4022;BME280;2025;48.260;16.432;2023-10-31T04:21:20;98267.81;;;14.08;78.18
4022;BME280;2025;48.260;16.432;2023-10-31T04:23:48;98275.97;;;14.07;78.74
4022;BME280;2025;48.260;16.432;2023-10-31T04:26:15;98274.81;;;14.03;78.59
4022;BME280;2025;48.260;16.432;2023-10-31T04:28:42;98280.69;;;14.05;78.76
4022;BME280;2025;48.260;16.432;2023-10-31T04:31:09;98284.13;;;14.05;78.39
4022;BME280;2025;48.260;16.432;2023-10-31T04:33:36;98283.59;;;14.03;78.67
4022;BME280;2025;48.260;16.432;2023-10-31T04:36:04;98300.94;;;13.99;79.12
4022;BME280;2025;48.260;16.432;2023-10-31T04:38:31;98295.06;;;13.97;79.23
4022;BME280;2025;48.260;16.432;2023-10-31T04:40:59;98290.00;;;13.96;79.07
4022;BME280;2025;48.260;16.432;2023-10-31T04:43:26;98291.25;;;13.93;79.33
4022;BME280;2025;48.260;16.432;2023-10-31T04:45:53;98284.69;;;13.96;78.76
4022;BME280;2025;48.260;16.432;2023-10-31T04:48:20;98292.06;;;13.94;78.83
4022;BME280;2025;48.260;16.432;2023-10-31T04:50:47;98310.16;;;13.97;79.18
4022;BME280;2025;48.260;16.432;2023-10-31T04:53:14;98317.50;;;13.95;78.57
4022;BME280;2025;48.260;16.432;2023-10-31T04:55:41;98317.50;;;13.95;79.68
4022;BME280;2025;48.260;16.432;2023-10-31T04:58:09;98322.00;;;13.94;78.98
4022;BME280;2025;48.260;16.432;2023-10-31T05:00:36;98327.16;;;14.01;78.72
4022;BME280;2025;48.260;16.432;2023-10-31T05:03:03;98326.38;;;14.00;78.26
4022;BME280;2025;48.260;16.432;2023-10-31T05:05:30;98332.25;;;14.02;78.05
4022;BME280;2025;48.260;16.432;2023-10-31T05:07:57;98337.75;;;14.01;78.44
4022;BME280;2025;48.260;16.432;2023-10-31T05:10:24;98320.50;;;13.98;78.23
4022;BME280;2025;48.260;16.432;2023-10-31T05:12:51;98326.63;;;13.99;77.73
4022;BME280;2025;48.260;16.432;2023-10-31T05:15:20;98325.69;;;14.05;76.94
4022;BME280;2025;48.260;16.432;2023-10-31T05:17:47;98333.88;;;14.03;77.79
4022;BME280;2025;48.260;16.432;2023-10-31T05:20:14;98337.75;;;14.01;77.56
4022;BME280;2025;48.260;16.432;2023-10-31T05:22:41;98347.22;;;13.97;77.75
4022;BME280;2025;48.260;16.432;2023-10-31T05:25:08;98363.09;;;13.97;77.91
4022;BME280;2025;48.260;16.432;2023-10-31T05:27:35;98352.13;;;13.93;78.67
4022;BME280;2025;48.260;16.432;2023-10-31T05:30:03;98356.84;;;13.91;78.11
4022;BME280;2025;48.260;16.432;2023-10-31T05:32:31;98375.44;;;13.84;78.38
4022;BME280;2025;48.260;16.432;2023-10-31T05:34:58;98381.19;;;13.81;78.64
4022;BME280;2025;48.260;16.432;2023-10-31T05:37:25;98385.75;;;13.74;79.32
4022;BME280;2025;48.260;16.432;2023-10-31T05:39:52;98402.31;;;13.69;79.42
4022;BME280;2025;48.260;16.432;2023-10-31T05:42:19;98395.84;;;13.65;79.06
4022;BME280;2025;48.260;16.432;2023-10-31T05:44:46;98406.28;;;13.60;79.48
4022;BME280;2025;48.260;16.432;2023-10-31T05:47:13;98409.13;;;13.59;79.39
4022;BME280;2025;48.260;16.432;2023-10-31T05:49:43;98409.78;;;13.54;79.38
4022;BME280;2025;48.260;16.432;2023-10-31T05:52:10;98415.09;;;13.54;78.89
4022;BME280;2025;48.260;16.432;2023-10-31T05:54:37;98421.63;;;13.52;79.20
4022;BME280;2025;48.260;16.432;2023-10-31T05:57:04;98432.00;;;13.53;78.90
4022;BME280;2025;48.260;16.432;2023-10-31T05:59:31;98435.31;;;13.48;78.61
4022;BME280;2025;48.260;16.432;2023-10-31T06:01:58;98438.41;;;13.45;77.95
4022;BME280;2025;48.260;16.432;2023-10-31T06:04:25;98457.72;;;13.46;77.61
4022;BME280;2025;48.260;16.432;2023-10-31T06:06:54;98459.16;;;13.42;77.44
4022;BME280;2025;48.260;16.432;2023-10-31T06:09:21;98465.72;;;13.39;77.55
4022;BME280;2025;48.260;16.432;2023-10-31T06:11:48;98465.72;;;13.39;77.50
4022;BME280;2025;48.260;16.432;2023-10-31T06:14:15;98476.94;;;13.35;77.83
4022;BME280;2025;48.260;16.432;2023-10-31T06:16:42;98481.44;;;13.34;77.94
4022;BME280;2025;48.260;16.432;2023-10-31T06:19:10;98474.16;;;13.30;77.55
4022;BME280;2025;48.260;16.432;2023-10-31T06:21:37;98486.31;;;13.31;77.89
4022;BME280;2025;48.260;16.432;2023-10-31T06:24:06;98485.72;;;13.28;77.57
4022;BME280;2025;48.260;16.432;2023-10-31T06:26:33;98503.22;;;13.30;77.81
4022;BME280;2025;48.260;16.432;2023-10-31T06:29:00;98493.28;;;13.25;78.29
4022;BME280;2025;48.260;16.432;2023-10-31T06:31:27;98490.25;;;13.21;78.36
4022;BME280;2025;48.260;16.432;2023-10-31T06:33:54;98509.78;;;13.20;78.71
4022;BME280;2025;48.260;16.432;2023-10-31T06:36:21;98518.75;;;13.19;79.01
4022;BME280;2025;48.260;16.432;2023-10-31T06:38:48;98536.66;;;13.17;78.86
4022;BME280;2025;48.260;16.432;2023-10-31T06:41:16;98532.81;;;13.13;79.25
4022;BME280;2025;48.260;16.432;2023-10-31T06:43:43;98522.91;;;13.08;78.93
4022;BME280;2025;48.260;16.432;2023-10-31T06:46:10;98530.44;;;13.05;79.51
4022;BME280;2025;48.260;16.432;2023-10-31T06:48:37;98545.47;;;13.04;79.29
4022;BME280;2025;48.260;16.432;2023-10-31T06:51:04;98539.63;;;12.96;78.59
4022;BME280;2025;48.260;16.432;2023-10-31T06:53:31;98537.88;;;12.90;79.33
4022;BME280;2025;48.260;16.432;2023-10-31T06:55:58;98527.72;;;12.86;79.49
4022;BME280;2025;48.260;16.432;2023-10-31T06:58:26;98538.88;;;12.89;80.37
4022;BME280;2025;48.260;16.432;2023-10-31T07:00:53;98528.34;;;12.82;79.67
4022;BME280;2025;48.260;16.432;2023-10-31T07:03:23;98527.78;;;12.80;80.03
4022;BME280;2025;48.260;16.432;2023-10-31T07:05:50;98521.25;;;12.82;79.62
4022;BME280;2025;48.260;16.432;2023-10-31T07:08:18;98511.94;;;12.80;80.13
4022;BME280;2025;48.260;16.432;2023-10-31T07:10:45;98508.25;;;12.81;79.03
4022;BME280;2025;48.260;16.432;2023-10-31T07:13:12;98510.13;;;12.74;78.95
4022;BME280;2025;48.260;16.432;2023-10-31T07:15:40;98500.38;;;12.74;77.94
4022;BME280;2025;48.260;16.432;2023-10-31T07:18:07;98508.13;;;12.69;78.62
4022;BME280;2025;48.260;16.432;2023-10-31T07:20:34;98501.25;;;12.68;78.52
4022;BME280;2025;48.260;16.432;2023-10-31T07:23:01;98522.38;;;12.68;77.84
4022;BME280;2025;48.260;16.432;2023-10-31T07:25:28;98537.81;;;12.64;78.06
4022;BME280;2025;48.260;16.432;2023-10-31T07:27:55;98539.81;;;12.69;78.38
4022;BME280;2025;48.260;16.432;2023-10-31T07:30:22;98543.50;;;12.68;77.75
4022;BME280;2025;48.260;16.432;2023-10-31T07:32:50;98551.81;;;12.65;77.82
4022;BME280;2025;48.260;16.432;2023-10-31T07:35:17;98552.88;;;12.64;77.78
4022;BME280;2025;48.260;16.432;2023-10-31T07:37:45;98561.59;;;12.64;77.89
4022;BME280;2025;48.260;16.432;2023-10-31T07:40:12;98574.00;;;12.64;78.64
4022;BME280;2025;48.260;16.432;2023-10-31T07:42:39;98585.56;;;12.63;77.64
4022;BME280;2025;48.260;16.432;2023-10-31T07:45:07;98595.53;;;12.61;77.63
4022;BME280;2025;48.260;16.432;2023-10-31T07:47:34;98583.16;;;12.61;77.76
4022;BME280;2025;48.260;16.432;2023-10-31T07:50:02;98570.53;;;12.63;77.48
4022;BME280;2025;48.260;16.432;2023-10-31T07:52:29;98589.44;;;12.60;78.05
4022;BME280;2025;48.260;16.432;2023-10-31T07:54:56;98582.31;;;12.61;77.48
4022;BME280;2025;48.260;16.432;2023-10-31T07:57:23;98586.44;;;12.57;77.99
4022;BME280;2025;48.260;16.432;2023-10-31T07:59:50;98596.72;;;12.65;77.67
4022;BME280;2025;48.260;16.432;2023-10-31T08:02:17;98600.59;;;12.62;76.72
4022;BME280;2025;48.260;16.432;2023-10-31T08:04:44;98599.81;;;12.62;76.77
4022;BME280;2025;48.260;16.432;2023-10-31T08:07:12;98589.25;;;12.62;77.00
4022;BME280;2025;48.260;16.432;2023-10-31T08:09:39;98599.38;;;12.65;76.09
4022;BME280;2025;48.260;16.432;2023-10-31T08:12:07;98597.97;;;12.62;76.44
4022;BME280;2025;48.260;16.432;2023-10-31T08:14:34;98588.19;;;12.70;75.57
4022;BME280;2025;48.260;16.432;2023-10-31T08:17:01;98579.84;;;12.73;76.07
4022;BME280;2025;48.260;16.432;2023-10-31T08:19:28;98571.09;;;12.72;76.29
4022;BME280;2025;48.260;16.432;2023-10-31T08:21:55;98573.53;;;12.74;76.05
4022;BME280;2025;48.260;16.432;2023-10-31T08:24:23;98578.41;;;12.70;75.74
4022;BME280;2025;48.260;16.432;2023-10-31T08:26:50;98571.13;;;12.65;75.95
4022;BME280;2025;48.260;16.432;2023-10-31T08:29:17;98560.56;;;12.65;74.89
4022;BME280;2025;48.260;16.432;2023-10-31T08:31:44;98553.47;;;12.66;74.37
4022;BME280;2025;48.260;16.432;2023-10-31T08:34:10;98548.19;;;12.66;74.35
4022;BME280;2025;48.260;16.432;2023-10-31T08:36:37;98552.44;;;12.67;75.00
4022;BME280;2025;48.260;16.432;2023-10-31T08:39:04;98567.03;;;12.70;73.80
4022;BME280;2025;48.260;16.432;2023-10-31T08:41:33;98580.47;;;12.68;73.80
4022;BME280;2025;48.260;16.432;2023-10-31T08:44:00;98599.16;;;12.67;74.21
4022;BME280;2025;48.260;16.432;2023-10-31T08:46:28;98589.03;;;12.63;74.29
4022;BME280;2025;48.260;16.432;2023-10-31T08:48:55;98588.19;;;12.63;74.95
4022;BME280;2025;48.260;16.432;2023-10-31T08:51:22;98595.50;;;12.68;74.53
4022;BME280;2025;48.260;16.432;2023-10-31T08:53:49;98590.22;;;12.68;74.22
4022;BME280;2025;48.260;16.432;2023-10-31T08:56:16;98585.38;;;12.64;73.89
4022;BME280;2025;48.260;16.432;2023-10-31T08:58:46;98576.19;;;12.67;74.07
4022;BME280;2025;48.260;16.432;2023-10-31T09:01:13;98555.28;;;12.65;73.82
4022;BME280;2025;48.260;16.432;2023-10-31T09:03:40;98563.19;;;12.65;73.91
4022;BME280;2025;48.260;16.432;2023-10-31T09:06:07;98555.69;;;12.69;73.46
4022;BME280;2025;48.260;16.432;2023-10-31T09:08:34;98542.47;;;12.69;73.71
4022;BME280;2025;48.260;16.432;2023-10-31T09:11:02;98547.75;;;12.69;73.55
4022;BME280;2025;48.260;16.432;2023-10-31T09:13:29;98546.94;;;12.69;72.75
4022;BME280;2025;48.260;16.432;2023-10-31T09:15:58;98552.63;;;12.65;72.91
4022;BME280;2025;48.260;16.432;2023-10-31T09:18:25;98563.16;;;12.72;73.07
4022;BME280;2025;48.260;16.432;2023-10-31T09:20:53;98579.00;;;12.72;73.16
4022;BME280;2025;48.260;16.432;2023-10-31T09:23:20;98580.06;;;12.71;73.31
4022;BME280;2025;48.260;16.432;2023-10-31T09:25:47;98585.75;;;12.68;73.72
4022;BME280;2025;48.260;16.432;2023-10-31T09:28:14;98585.69;;;12.75;73.41
4022;BME280;2025;48.260;16.432;2023-10-31T09:30:41;98581.06;;;12.70;72.69
4022;BME280;2025;48.260;16.432;2023-10-31T09:33:10;98579.28;;;12.64;73.67
4022;BME280;2025;48.260;16.432;2023-10-31T09:35:38;98577.63;;;12.63;73.83
4022;BME280;2025;48.260;16.432;2023-10-31T09:38:05;98567.94;;;12.57;74.09
4022;BME280;2025;48.260;16.432;2023-10-31T09:40:32;98574.81;;;12.58;73.85
4022;BME280;2025;48.260;16.432;2023-10-31T09:42:59;98568.94;;;12.56;74.35
4022;BME280;2025;48.260;16.432;2023-10-31T09:45:26;98566.94;;;12.51;74.83
4022;BME280;2025;48.260;16.432;2023-10-31T09:47:53;98559.63;;;12.47;75.57
4022;BME280;2025;48.260;16.432;2023-10-31T09:50:22;98566.56;;;12.48;76.25
4022;BME280;2025;48.260;16.432;2023-10-31T09:52:49;98564.94;;;12.40;75.56
4022;BME280;2025;48.260;16.432;2023-10-31T09:55:17;98574.53;;;12.34;76.26
4022;BME280;2025;48.260;16.432;2023-10-31T09:57:45;98583.88;;;12.30;76.76
4022;BME280;2025;48.260;16.432;2023-10-31T10:00:13;98603.22;;;12.17;79.08
4022;BME280;2025;48.260;16.432;2023-10-31T10:02:40;98607.53;;;11.98;79.98
4022;BME280;2025;48.260;16.432;2023-10-31T10:05:09;98607.31;;;11.87;82.56
4022;BME280;2025;48.260;16.432;2023-10-31T10:07:41;98604.09;;;11.71;83.17
4022;BME280;2025;48.260;16.432;2023-10-31T10:10:10;98607.94;;;11.62;84.56
4022;BME280;2025;48.260;16.432;2023-10-31T10:12:37;98611.38;;;11.56;85.30
4022;BME280;2025;48.260;16.432;2023-10-31T10:15:05;98600.44;;;11.52;84.95
4022;BME280;2025;48.260;16.432;2023-10-31T10:17:32;98608.53;;;11.51;87.33
4022;BME280;2025;48.260;16.432;2023-10-31T10:20:09;98614.63;;;11.38;88.54
4022;BME280;2025;48.260;16.432;2023-10-31T10:22:39;98620.50;;;11.20;88.67
4022;BME280;2025;48.260;16.432;2023-10-31T10:25:08;98636.91;;;11.15;90.41
4022;BME280;2025;48.260;16.432;2023-10-31T10:27:37;98643.75;;;10.96;92.80
4022;BME280;2025;48.260;16.432;2023-10-31T10:30:05;98649.19;;;10.88;93.84
4022;BME280;2025;48.260;16.432;2023-10-31T10:32:32;98645.50;;;10.76;95.88
4022;BME280;2025;48.260;16.432;2023-10-31T10:34:59;98643.84;;;10.62;97.16
4022;BME280;2025;48.260;16.432;2023-10-31T10:37:26;98645.81;;;10.53;97.36
4022;BME280;2025;48.260;16.432;2023-10-31T10:39:57;98652.88;;;10.46;98.37
4022;BME280;2025;48.260;16.432;2023-10-31T10:42:31;98655.88;;;10.36;98.69
4022;BME280;2025;48.260;16.432;2023-10-31T10:45:02;98643.22;;;10.25;100.00
4022;BME280;2025;48.260;16.432;2023-10-31T10:47:31;98639.94;;;10.16;100.00
4022;BME280;2025;48.260;16.432;2023-10-31T10:50:00;98634.66;;;10.09;100.00
4022;BME280;2025;48.260;16.432;2023-10-31T10:52:32;98626.50;;;9.98;100.00
4022;BME280;2025;48.260;16.432;2023-10-31T10:55:11;98624.44;;;9.93;100.00
4022;BME280;2025;48.260;16.432;2023-10-31T10:57:45;98621.38;;;9.89;100.00
4022;BME280;2025;48.260;16.432;2023-10-31T11:00:15;98610.78;;;9.83;100.00
4022;BME280;2025;48.260;16.432;2023-10-31T11:02:42;98603.25;;;9.73;100.00
4022;BME280;2025;48.260;16.432;2023-10-31T11:05:11;98609.09;;;9.68;100.00
4022;BME280;2025;48.260;16.432;2023-10-31T11:07:40;98613.47;;;9.61;100.00
4022;BME280;2025;48.260;16.432;2023-10-31T11:10:09;98630.06;;;9.62;100.00
4022;BME280;2025;48.260;16.432;2023-10-31T11:12:37;98653.47;;;9.57;100.00
4022;BME280;2025;48.260;16.432;2023-10-31T11:15:06;98653.41;;;9.50;100.00
4022;BME280;2025;48.260;16.432;2023-10-31T11:17:36;98668.75;;;9.46;100.00
4022;BME280;2025;48.260;16.432;2023-10-31T11:20:05;98672.56;;;9.44;100.00
4022;BME280;2025;48.260;16.432;2023-10-31T11:22:38;98682.25;;;9.43;100.00
4022;BME280;2025;48.260;16.432;2023-10-31T11:25:08;98701.47;;;9.44;100.00
4022;BME280;2025;48.260;16.432;2023-10-31T11:27:35;98721.13;;;9.48;100.00
4022;BME280;2025;48.260;16.432;2023-10-31T11:30:05;98744.78;;;9.48;100.00
4022;BME280;2025;48.260;16.432;2023-10-31T11:32:33;98756.94;;;9.49;100.00
4022;BME280;2025;48.260;16.432;2023-10-31T11:35:00;98787.22;;;9.45;100.00
4022;BME280;2025;48.260;16.432;2023-10-31T11:37:32;98801.78;;;9.47;100.00
4022;BME280;2025;48.260;16.432;2023-10-31T11:40:19;98809.41;;;9.42;100.00
4022;BME280;2025;48.260;16.432;2023-10-31T11:42:47;98807.97;;;9.40;100.00
4022;BME280;2025;48.260;16.432;2023-10-31T11:45:32;98791.97;;;9.35;100.00
4022;BME280;2025;48.260;16.432;2023-10-31T11:47:59;98775.56;;;9.33;100.00
4022;BME280;2025;48.260;16.432;2023-10-31T11:50:26;98765.22;;;9.31;100.00
4022;BME280;2025;48.260;16.432;2023-10-31T11:53:05;98740.13;;;9.28;100.00
4022;BME280;2025;48.260;16.432;2023-10-31T11:55:35;98717.69;;;9.26;100.00
4022;BME280;2025;48.260;16.432;2023-10-31T11:58:15;98697.47;;;9.26;100.00
4022;BME280;2025;48.260;16.432;2023-10-31T12:00:42;98703.53;;;9.27;100.00
4022;BME280;2025;48.260;16.432;2023-10-31T12:03:10;98720.16;;;9.34;100.00
4022;BME280;2025;48.260;16.432;2023-10-31T12:05:37;98753.97;;;9.37;100.00
4022;BME280;2025;48.260;16.432;2023-10-31T12:08:04;98768.09;;;9.36;100.00
4022;BME280;2025;48.260;16.432;2023-10-31T12:10:31;98784.25;;;9.33;100.00
4022;BME280;2025;48.260;16.432;2023-10-31T12:12:59;98771.50;;;9.30;100.00
4022;BME280;2025;48.260;16.432;2023-10-31T12:15:26;98765.41;;;9.29;100.00
4022;BME280;2025;48.260;16.432;2023-10-31T12:17:58;98733.06;;;9.29;100.00
4022;BME280;2025;48.260;16.432;2023-10-31T12:20:25;98711.66;;;9.32;100.00
4022;BME280;2025;48.260;16.432;2023-10-31T12:23:02;98712.91;;;9.36;100.00
4022;BME280;2025;48.260;16.432;2023-10-31T12:25:29;98696.34;;;9.36;100.00
4022;BME280;2025;48.260;16.432;2023-10-31T12:28:02;98683.63;;;9.39;100.00
4022;BME280;2025;48.260;16.432;2023-10-31T12:30:28;98673.09;;;9.33;100.00
4022;BME280;2025;48.260;16.432;2023-10-31T12:32:56;98697.72;;;9.32;100.00
4022;BME280;2025;48.260;16.432;2023-10-31T12:35:24;98719.13;;;9.28;100.00
4022;BME280;2025;48.260;16.432;2023-10-31T12:37:53;98725.72;;;9.24;100.00
4022;BME280;2025;48.260;16.432;2023-10-31T12:40:21;98713.59;;;9.23;100.00
4022;BME280;2025;48.260;16.432;2023-10-31T12:42:49;98709.34;;;9.22;100.00
4022;BME280;2025;48.260;16.432;2023-10-31T12:45:19;98691.34;;;9.19;100.00
4022;BME280;2025;48.260;16.432;2023-10-31T12:48:00;98672.50;;;9.16;100.00
4022;BME280;2025;48.260;16.432;2023-10-31T12:50:28;98642.78;;;9.15;100.00
4022;BME280;2025;48.260;16.432;2023-10-31T12:52:55;98633.34;;;9.21;100.00
4022;BME280;2025;48.260;16.432;2023-10-31T12:55:26;98646.28;;;9.22;100.00
4022;BME280;2025;48.260;16.432;2023-10-31T12:57:54;98667.13;;;9.24;100.00
4022;BME280;2025;48.260;16.432;2023-10-31T13:00:30;98702.34;;;9.29;100.00
4022;BME280;2025;48.260;16.432;2023-10-31T13:03:00;98734.88;;;9.28;100.00
4022;BME280;2025;48.260;16.432;2023-10-31T13:05:27;98739.88;;;9.23;100.00
4022;BME280;2025;48.260;16.432;2023-10-31T13:07:56;98740.50;;;9.25;100.00
4022;BME280;2025;48.260;16.432;2023-10-31T13:10:23;98725.00;;;9.31;100.00
4022;BME280;2025;48.260;16.432;2023-10-31T13:12:51;98726.81;;;9.30;100.00